sensor_id;sensor_type;location;lat;lon;timestamp;temperature;humidity
30520;DHT22;17300;50.374;8.006;2024-01-06T00:02:13;12.10;48.50
30520;DHT22;17300;50.374;8.006;2024-01-06T00:04:41;12.10;48.50
30520;DHT22;17300;50.374;8.006;2024-01-06T00:07:07;12.10;48.50
30520;DHT22;17300;50.374;8.006;2024-01-06T00:09:34;12.10;48.50
30520;DHT22;17300;50.374;8.006;2024-01-06T00:12:01;12.10;48.50
30520;DHT22;17300;50.374;8.006;2024-01-06T00:14:28;12.10;48.40
30520;DHT22;17300;50.374;8.006;2024-01-06T00:16:54;12.20;48.50
30520;DHT22;17300;50.374;8.006;2024-01-06T00:19:21;12.10;48.40
30520;DHT22;17300;50.374;8.006;2024-01-06T00:21:49;12.10;48.40
30520;DHT22;17300;50.374;8.006;2024-01-06T00:24:16;12.10;48.40
30520;DHT22;17300;50.374;8.006;2024-01-06T00:26:42;12.10;48.30
30520;DHT22;17300;50.374;8.006;2024-01-06T00:29:09;12.10;49.00
30520;DHT22;17300;50.374;8.006;2024-01-06T00:31:35;12.10;48.40
30520;DHT22;17300;50.374;8.006;2024-01-06T00:34:02;12.10;48.50
30520;DHT22;17300;50.374;8.006;2024-01-06T00:36:29;12.10;48.50
30520;DHT22;17300;50.374;8.006;2024-01-06T00:38:57;12.10;48.50
30520;DHT22;17300;50.374;8.006;2024-01-06T00:41:23;12.10;48.50
30520;DHT22;17300;50.374;8.006;2024-01-06T00:43:50;12.10;48.50
30520;DHT22;17300;50.374;8.006;2024-01-06T00:46:17;12.10;48.50
30520;DHT22;17300;50.374;8.006;2024-01-06T00:48:44;12.10;48.50
30520;DHT22;17300;50.374;8.006;2024-01-06T00:51:10;12.10;48.60
30520;DHT22;17300;50.374;8.006;2024-01-06T00:53:37;12.10;48.60
30520;DHT22;17300;50.374;8.006;2024-01-06T00:56:05;12.10;48.60
30520;DHT22;17300;50.374;8.006;2024-01-06T00:58:32;12.10;48.60
30520;DHT22;17300;50.374;8.006;2024-01-06T01:00:58;12.10;48.60
30520;DHT22;17300;50.374;8.006;2024-01-06T01:03:25;12.10;48.60
30520;DHT22;17300;50.374;8.006;2024-01-06T01:05:52;12.10;49.20
30520;DHT22;17300;50.374;8.006;2024-01-06T01:08:19;12.10;48.60
30520;DHT22;17300;50.374;8.006;2024-01-06T01:10:45;12.20;48.80
30520;DHT22;17300;50.374;8.006;2024-01-06T01:13:13;12.20;48.80
30520;DHT22;17300;50.374;8.006;2024-01-06T01:15:40;12.20;48.80
30520;DHT22;17300;50.374;8.006;2024-01-06T01:18:07;12.20;48.80
30520;DHT22;17300;50.374;8.006;2024-01-06T01:20:34;12.20;48.80
30520;DHT22;17300;50.374;8.006;2024-01-06T01:23:00;12.20;48.90
30520;DHT22;17300;50.374;8.006;2024-01-06T01:25:27;12.30;49.00
30520;DHT22;17300;50.374;8.006;2024-01-06T01:27:54;12.20;49.60
30520;DHT22;17300;50.374;8.006;2024-01-06T01:30:22;12.30;49.10
30520;DHT22;17300;50.374;8.006;2024-01-06T01:32:48;12.30;49.10
30520;DHT22;17300;50.374;8.006;2024-01-06T01:35:15;12.30;49.00
30520;DHT22;17300;50.374;8.006;2024-01-06T01:37:42;12.30;49.00
30520;DHT22;17300;50.374;8.006;2024-01-06T01:40:09;12.30;49.00
30520;DHT22;17300;50.374;8.006;2024-01-06T01:42:36;12.30;49.00
30520;DHT22;17300;50.374;8.006;2024-01-06T01:45:04;12.40;49.00
30520;DHT22;17300;50.374;8.006;2024-01-06T01:47:32;12.30;49.00
30520;DHT22;17300;50.374;8.006;2024-01-06T01:49:59;12.30;48.90
30520;DHT22;17300;50.374;8.006;2024-01-06T01:52:27;12.30;48.80
30520;DHT22;17300;50.374;8.006;2024-01-06T01:54:54;12.30;48.80
30520;DHT22;17300;50.374;8.006;2024-01-06T01:57:21;12.30;48.80
30520;DHT22;17300;50.374;8.006;2024-01-06T01:59:50;12.30;48.80
30520;DHT22;17300;50.374;8.006;2024-01-06T02:02:18;12.30;48.80
30520;DHT22;17300;50.374;8.006;2024-01-06T02:04:46;12.20;48.70
30520;DHT22;17300;50.374;8.006;2024-01-06T02:07:13;12.20;48.70
30520;DHT22;17300;50.374;8.006;2024-01-06T02:09:40;12.20;48.70
30520;DHT22;17300;50.374;8.006;2024-01-06T02:12:07;12.20;48.70
30520;DHT22;17300;50.374;8.006;2024-01-06T02:14:33;12.20;48.80
30520;DHT22;17300;50.374;8.006;2024-01-06T02:17:00;12.20;48.80
30520;DHT22;17300;50.374;8.006;2024-01-06T02:19:27;12.20;48.80
30520;DHT22;17300;50.374;8.006;2024-01-06T02:21:55;12.10;48.70
30520;DHT22;17300;50.374;8.006;2024-01-06T02:24:22;12.10;48.70
30520;DHT22;17300;50.374;8.006;2024-01-06T02:26:48;12.10;48.80
30520;DHT22;17300;50.374;8.006;2024-01-06T02:29:16;12.10;48.80
30520;DHT22;17300;50.374;8.006;2024-01-06T02:31:42;12.10;48.80
30520;DHT22;17300;50.374;8.006;2024-01-06T02:34:09;12.10;48.90
30520;DHT22;17300;50.374;8.006;2024-01-06T02:36:36;12.10;48.90
30520;DHT22;17300;50.374;8.006;2024-01-06T02:39:04;12.10;48.90
30520;DHT22;17300;50.374;8.006;2024-01-06T02:41:30;12.10;49.00
30520;DHT22;17300;50.374;8.006;2024-01-06T02:43:58;12.10;49.00
30520;DHT22;17300;50.374;8.006;2024-01-06T02:46:24;12.10;49.00
30520;DHT22;17300;50.374;8.006;2024-01-06T02:48:51;12.10;49.10
30520;DHT22;17300;50.374;8.006;2024-01-06T02:51:17;12.10;49.10
30520;DHT22;17300;50.374;8.006;2024-01-06T02:53:44;12.10;49.10
30520;DHT22;17300;50.374;8.006;2024-01-06T02:56:12;12.10;49.10
30520;DHT22;17300;50.374;8.006;2024-01-06T02:58:39;12.10;49.20
30520;DHT22;17300;50.374;8.006;2024-01-06T03:01:06;12.10;49.20
30520;DHT22;17300;50.374;8.006;2024-01-06T03:03:32;12.10;49.20
30520;DHT22;17300;50.374;8.006;2024-01-06T03:05:59;12.10;49.20
30520;DHT22;17300;50.374;8.006;2024-01-06T03:08:26;12.10;49.20
30520;DHT22;17300;50.374;8.006;2024-01-06T03:10:52;12.00;49.20
30520;DHT22;17300;50.374;8.006;2024-01-06T03:13:20;12.00;49.20
30520;DHT22;17300;50.374;8.006;2024-01-06T03:15:47;12.10;49.30
30520;DHT22;17300;50.374;8.006;2024-01-06T03:18:14;12.00;49.20
30520;DHT22;17300;50.374;8.006;2024-01-06T03:20:41;12.00;49.20
30520;DHT22;17300;50.374;8.006;2024-01-06T03:23:08;12.00;49.30
30520;DHT22;17300;50.374;8.006;2024-01-06T03:25:34;12.00;49.40
30520;DHT22;17300;50.374;8.006;2024-01-06T03:28:01;12.00;49.40
30520;DHT22;17300;50.374;8.006;2024-01-06T03:30:29;12.00;49.50
30520;DHT22;17300;50.374;8.006;2024-01-06T03:32:56;12.10;49.60
30520;DHT22;17300;50.374;8.006;2024-01-06T03:35:23;12.10;49.70
30520;DHT22;17300;50.374;8.006;2024-01-06T03:37:50;12.00;49.70
30520;DHT22;17300;50.374;8.006;2024-01-06T03:40:16;12.10;49.80
30520;DHT22;17300;50.374;8.006;2024-01-06T03:42:43;12.10;49.90
30520;DHT22;17300;50.374;8.006;2024-01-06T03:45:10;12.10;49.90
30520;DHT22;17300;50.374;8.006;2024-01-06T03:47:38;12.10;49.90
30520;DHT22;17300;50.374;8.006;2024-01-06T03:50:05;12.10;49.90
30520;DHT22;17300;50.374;8.006;2024-01-06T03:52:32;12.10;49.90
30520;DHT22;17300;50.374;8.006;2024-01-06T03:54:58;12.10;49.80
30520;DHT22;17300;50.374;8.006;2024-01-06T03:57:25;12.10;49.80
30520;DHT22;17300;50.374;8.006;2024-01-06T03:59:52;12.10;49.80
30520;DHT22;17300;50.374;8.006;2024-01-06T04:02:18;12.10;49.80
30520;DHT22;17300;50.374;8.006;2024-01-06T04:04:46;12.10;49.80
30520;DHT22;17300;50.374;8.006;2024-01-06T04:07:13;12.10;49.80
30520;DHT22;17300;50.374;8.006;2024-01-06T04:09:42;12.10;49.80
30520;DHT22;17300;50.374;8.006;2024-01-06T04:12:08;12.10;49.90
30520;DHT22;17300;50.374;8.006;2024-01-06T04:14:35;12.10;49.90
30520;DHT22;17300;50.374;8.006;2024-01-06T04:17:02;12.10;49.80
30520;DHT22;17300;50.374;8.006;2024-01-06T04:19:29;12.10;49.90
30520;DHT22;17300;50.374;8.006;2024-01-06T04:21:57;12.10;49.90
30520;DHT22;17300;50.374;8.006;2024-01-06T04:24:23;12.10;49.90
30520;DHT22;17300;50.374;8.006;2024-01-06T04:26:50;12.10;49.90
30520;DHT22;17300;50.374;8.006;2024-01-06T04:29:17;12.10;49.90
30520;DHT22;17300;50.374;8.006;2024-01-06T04:31:43;12.10;50.50
30520;DHT22;17300;50.374;8.006;2024-01-06T04:34:10;12.10;49.90
30520;DHT22;17300;50.374;8.006;2024-01-06T04:36:37;12.10;49.90
30520;DHT22;17300;50.374;8.006;2024-01-06T04:39:05;12.10;49.90
30520;DHT22;17300;50.374;8.006;2024-01-06T04:41:32;12.10;49.90
30520;DHT22;17300;50.374;8.006;2024-01-06T04:43:58;12.10;49.90
30520;DHT22;17300;50.374;8.006;2024-01-06T04:46:25;12.10;49.90
30520;DHT22;17300;50.374;8.006;2024-01-06T04:48:52;12.10;49.90
30520;DHT22;17300;50.374;8.006;2024-01-06T04:51:18;12.10;49.90
30520;DHT22;17300;50.374;8.006;2024-01-06T04:53:45;12.10;49.90
30520;DHT22;17300;50.374;8.006;2024-01-06T04:56:13;12.10;49.90
30520;DHT22;17300;50.374;8.006;2024-01-06T04:58:40;12.10;49.90
30520;DHT22;17300;50.374;8.006;2024-01-06T05:01:06;12.10;49.90
30520;DHT22;17300;50.374;8.006;2024-01-06T05:03:33;12.10;49.90
30520;DHT22;17300;50.374;8.006;2024-01-06T05:06:00;12.20;50.00
30520;DHT22;17300;50.374;8.006;2024-01-06T05:08:26;12.10;49.90
30520;DHT22;17300;50.374;8.006;2024-01-06T05:10:55;12.10;49.90
30520;DHT22;17300;50.374;8.006;2024-01-06T05:13:23;12.10;49.90
30520;DHT22;17300;50.374;8.006;2024-01-06T05:15:50;12.10;49.90
30520;DHT22;17300;50.374;8.006;2024-01-06T05:18:17;12.10;49.90
30520;DHT22;17300;50.374;8.006;2024-01-06T05:20:43;12.10;50.00
30520;DHT22;17300;50.374;8.006;2024-01-06T05:23:10;12.10;50.20
30520;DHT22;17300;50.374;8.006;2024-01-06T05:25:37;12.10;50.30
30520;DHT22;17300;50.374;8.006;2024-01-06T05:28:03;12.10;50.30
30520;DHT22;17300;50.374;8.006;2024-01-06T05:30:31;12.10;50.40
30520;DHT22;17300;50.374;8.006;2024-01-06T05:32:57;12.10;50.30
30520;DHT22;17300;50.374;8.006;2024-01-06T05:35:24;12.20;50.50
30520;DHT22;17300;50.374;8.006;2024-01-06T05:37:51;12.10;50.40
30520;DHT22;17300;50.374;8.006;2024-01-06T05:40:17;12.10;50.50
30520;DHT22;17300;50.374;8.006;2024-01-06T05:42:44;12.20;50.50
30520;DHT22;17300;50.374;8.006;2024-01-06T05:45:11;12.20;50.50
30520;DHT22;17300;50.374;8.006;2024-01-06T05:47:40;12.20;50.50
30520;DHT22;17300;50.374;8.006;2024-01-06T05:50:07;12.10;50.50
30520;DHT22;17300;50.374;8.006;2024-01-06T05:52:34;12.10;50.50
30520;DHT22;17300;50.374;8.006;2024-01-06T05:55:01;12.20;50.60
30520;DHT22;17300;50.374;8.006;2024-01-06T05:57:28;12.20;50.60
30520;DHT22;17300;50.374;8.006;2024-01-06T05:59:54;12.20;50.70
30520;DHT22;17300;50.374;8.006;2024-01-06T06:02:21;12.20;50.70
30520;DHT22;17300;50.374;8.006;2024-01-06T06:04:49;12.20;50.70
30520;DHT22;17300;50.374;8.006;2024-01-06T06:07:16;12.20;50.70
30520;DHT22;17300;50.374;8.006;2024-01-06T06:09:42;12.20;50.70
30520;DHT22;17300;50.374;8.006;2024-01-06T06:12:12;12.20;50.70
30520;DHT22;17300;50.374;8.006;2024-01-06T06:14:39;12.20;50.70
30520;DHT22;17300;50.374;8.006;2024-01-06T06:17:07;12.10;50.60
30520;DHT22;17300;50.374;8.006;2024-01-06T06:19:33;12.20;50.70
30520;DHT22;17300;50.374;8.006;2024-01-06T06:22:01;12.20;50.80
30520;DHT22;17300;50.374;8.006;2024-01-06T06:24:28;12.20;50.80
30520;DHT22;17300;50.374;8.006;2024-01-06T06:26:55;12.10;50.80
30520;DHT22;17300;50.374;8.006;2024-01-06T06:29:22;12.20;51.00
30520;DHT22;17300;50.374;8.006;2024-01-06T06:31:49;12.10;50.90
30520;DHT22;17300;50.374;8.006;2024-01-06T06:34:16;12.10;51.00
30520;DHT22;17300;50.374;8.006;2024-01-06T06:36:42;12.10;51.00
30520;DHT22;17300;50.374;8.006;2024-01-06T06:39:10;12.20;51.10
30520;DHT22;17300;50.374;8.006;2024-01-06T06:41:37;12.10;51.10
30520;DHT22;17300;50.374;8.006;2024-01-06T06:44:04;12.10;51.00
30520;DHT22;17300;50.374;8.006;2024-01-06T06:46:30;12.10;51.00
30520;DHT22;17300;50.374;8.006;2024-01-06T06:48:57;12.10;51.00
30520;DHT22;17300;50.374;8.006;2024-01-06T06:51:24;12.10;51.10
30520;DHT22;17300;50.374;8.006;2024-01-06T06:53:52;12.10;51.10
30520;DHT22;17300;50.374;8.006;2024-01-06T06:56:20;12.10;51.10
30520;DHT22;17300;50.374;8.006;2024-01-06T06:58:47;12.10;51.20
30520;DHT22;17300;50.374;8.006;2024-01-06T07:01:14;12.10;51.20
30520;DHT22;17300;50.374;8.006;2024-01-06T07:03:41;12.10;51.20
30520;DHT22;17300;50.374;8.006;2024-01-06T07:06:08;12.10;51.20
30520;DHT22;17300;50.374;8.006;2024-01-06T07:08:34;12.10;51.20
30520;DHT22;17300;50.374;8.006;2024-01-06T07:11:04;12.10;51.20
30520;DHT22;17300;50.374;8.006;2024-01-06T07:13:32;12.10;51.30
30520;DHT22;17300;50.374;8.006;2024-01-06T07:15:58;12.10;51.30
30520;DHT22;17300;50.374;8.006;2024-01-06T07:18:25;12.10;51.30
30520;DHT22;17300;50.374;8.006;2024-01-06T07:20:52;12.10;51.40
30520;DHT22;17300;50.374;8.006;2024-01-06T07:23:18;12.10;51.40
30520;DHT22;17300;50.374;8.006;2024-01-06T07:25:45;12.10;51.40
30520;DHT22;17300;50.374;8.006;2024-01-06T07:28:12;12.10;51.40
30520;DHT22;17300;50.374;8.006;2024-01-06T07:30:40;12.10;51.50
30520;DHT22;17300;50.374;8.006;2024-01-06T07:33:06;12.10;51.50
30520;DHT22;17300;50.374;8.006;2024-01-06T07:35:33;12.10;51.40
30520;DHT22;17300;50.374;8.006;2024-01-06T07:38:00;12.10;51.50
30520;DHT22;17300;50.374;8.006;2024-01-06T07:40:27;12.10;51.60
30520;DHT22;17300;50.374;8.006;2024-01-06T07:42:53;12.10;51.60
30520;DHT22;17300;50.374;8.006;2024-01-06T07:45:20;12.10;51.60
30520;DHT22;17300;50.374;8.006;2024-01-06T07:47:48;12.10;51.60
30520;DHT22;17300;50.374;8.006;2024-01-06T07:50:15;12.10;51.60
30520;DHT22;17300;50.374;8.006;2024-01-06T07:52:42;12.10;51.60
30520;DHT22;17300;50.374;8.006;2024-01-06T07:55:08;12.10;51.60
30520;DHT22;17300;50.374;8.006;2024-01-06T07:57:35;12.10;51.60
30520;DHT22;17300;50.374;8.006;2024-01-06T08:00:02;12.10;51.60
30520;DHT22;17300;50.374;8.006;2024-01-06T08:02:29;12.10;51.60
30520;DHT22;17300;50.374;8.006;2024-01-06T08:04:57;12.10;51.60
30520;DHT22;17300;50.374;8.006;2024-01-06T08:07:24;12.10;51.60
30520;DHT22;17300;50.374;8.006;2024-01-06T08:09:50;12.10;51.50
30520;DHT22;17300;50.374;8.006;2024-01-06T08:12:17;12.10;51.50
30520;DHT22;17300;50.374;8.006;2024-01-06T08:14:44;12.10;51.50
30520;DHT22;17300;50.374;8.006;2024-01-06T08:17:11;12.10;51.50
30520;DHT22;17300;50.374;8.006;2024-01-06T08:19:37;12.10;51.50
30520;DHT22;17300;50.374;8.006;2024-01-06T08:22:05;12.10;51.50
30520;DHT22;17300;50.374;8.006;2024-01-06T08:24:32;12.10;51.60
30520;DHT22;17300;50.374;8.006;2024-01-06T08:26:59;12.10;51.60
30520;DHT22;17300;50.374;8.006;2024-01-06T08:29:25;12.10;51.60
30520;DHT22;17300;50.374;8.006;2024-01-06T08:31:52;12.10;51.70
30520;DHT22;17300;50.374;8.006;2024-01-06T08:34:20;12.10;51.70
30520;DHT22;17300;50.374;8.006;2024-01-06T08:36:46;12.10;51.70
30520;DHT22;17300;50.374;8.006;2024-01-06T08:39:14;12.10;51.70
30520;DHT22;17300;50.374;8.006;2024-01-06T08:41:41;12.10;51.80
30520;DHT22;17300;50.374;8.006;2024-01-06T08:44:08;12.10;51.80
30520;DHT22;17300;50.374;8.006;2024-01-06T08:46:34;12.20;51.80
30520;DHT22;17300;50.374;8.006;2024-01-06T08:49:01;12.20;51.80
30520;DHT22;17300;50.374;8.006;2024-01-06T08:51:28;12.20;51.80
30520;DHT22;17300;50.374;8.006;2024-01-06T08:53:56;12.20;51.80
30520;DHT22;17300;50.374;8.006;2024-01-06T08:56:24;12.20;51.80
30520;DHT22;17300;50.374;8.006;2024-01-06T08:58:51;12.20;51.80
30520;DHT22;17300;50.374;8.006;2024-01-06T09:01:17;12.20;51.80
30520;DHT22;17300;50.374;8.006;2024-01-06T09:03:44;12.20;51.80
30520;DHT22;17300;50.374;8.006;2024-01-06T09:06:11;12.20;51.80
30520;DHT22;17300;50.374;8.006;2024-01-06T09:08:37;12.20;51.80
30520;DHT22;17300;50.374;8.006;2024-01-06T09:11:06;12.20;51.80
30520;DHT22;17300;50.374;8.006;2024-01-06T09:13:34;12.20;51.80
30520;DHT22;17300;50.374;8.006;2024-01-06T09:16:00;12.20;51.80
30520;DHT22;17300;50.374;8.006;2024-01-06T09:18:27;12.30;51.90
30520;DHT22;17300;50.374;8.006;2024-01-06T09:20:54;12.30;51.90
30520;DHT22;17300;50.374;8.006;2024-01-06T09:23:22;12.30;51.90
30520;DHT22;17300;50.374;8.006;2024-01-06T09:25:49;12.30;52.00
30520;DHT22;17300;50.374;8.006;2024-01-06T09:28:17;12.30;51.90
30520;DHT22;17300;50.374;8.006;2024-01-06T09:30:45;12.30;52.00
30520;DHT22;17300;50.374;8.006;2024-01-06T09:33:12;12.30;52.00
30520;DHT22;17300;50.374;8.006;2024-01-06T09:35:41;12.30;52.00
30520;DHT22;17300;50.374;8.006;2024-01-06T09:38:08;12.30;52.10
30520;DHT22;17300;50.374;8.006;2024-01-06T09:40:34;12.30;52.20
30520;DHT22;17300;50.374;8.006;2024-01-06T09:43:02;12.30;52.30
30520;DHT22;17300;50.374;8.006;2024-01-06T09:45:29;12.30;52.30
30520;DHT22;17300;50.374;8.006;2024-01-06T09:47:58;12.40;52.40
30520;DHT22;17300;50.374;8.006;2024-01-06T09:50:26;12.40;52.50
30520;DHT22;17300;50.374;8.006;2024-01-06T09:52:53;12.40;52.60
30520;DHT22;17300;50.374;8.006;2024-01-06T09:55:29;12.40;52.60
30520;DHT22;17300;50.374;8.006;2024-01-06T09:57:56;12.40;52.60
30520;DHT22;17300;50.374;8.006;2024-01-06T10:00:22;12.40;52.60
30520;DHT22;17300;50.374;8.006;2024-01-06T10:02:49;12.50;52.80
30520;DHT22;17300;50.374;8.006;2024-01-06T10:05:18;12.50;52.80
30520;DHT22;17300;50.374;8.006;2024-01-06T10:07:45;12.50;52.70
30520;DHT22;17300;50.374;8.006;2024-01-06T10:10:12;12.60;52.70
30520;DHT22;17300;50.374;8.006;2024-01-06T10:12:39;12.50;52.60
30520;DHT22;17300;50.374;8.006;2024-01-06T10:15:07;12.60;52.60
30520;DHT22;17300;50.374;8.006;2024-01-06T10:17:36;12.60;52.70
30520;DHT22;17300;50.374;8.006;2024-01-06T10:20:06;12.60;52.80
30520;DHT22;17300;50.374;8.006;2024-01-06T10:22:37;12.60;52.80
30520;DHT22;17300;50.374;8.006;2024-01-06T10:25:05;12.60;52.80
30520;DHT22;17300;50.374;8.006;2024-01-06T10:27:33;12.60;52.80
30520;DHT22;17300;50.374;8.006;2024-01-06T10:30:00;12.50;52.80
30520;DHT22;17300;50.374;8.006;2024-01-06T10:32:31;12.60;52.90
30520;DHT22;17300;50.374;8.006;2024-01-06T10:34:58;12.60;53.00
30520;DHT22;17300;50.374;8.006;2024-01-06T10:37:26;12.60;53.00
30520;DHT22;17300;50.374;8.006;2024-01-06T10:40:07;12.60;53.00
30520;DHT22;17300;50.374;8.006;2024-01-06T10:42:33;12.60;53.30
30520;DHT22;17300;50.374;8.006;2024-01-06T10:45:01;12.60;53.00
30520;DHT22;17300;50.374;8.006;2024-01-06T10:47:29;12.60;53.00
30520;DHT22;17300;50.374;8.006;2024-01-06T10:49:59;12.60;53.00
30520;DHT22;17300;50.374;8.006;2024-01-06T10:52:26;12.60;53.00
30520;DHT22;17300;50.374;8.006;2024-01-06T10:54:54;12.60;53.00
30520;DHT22;17300;50.374;8.006;2024-01-06T10:57:23;12.60;53.00
30520;DHT22;17300;50.374;8.006;2024-01-06T10:59:51;12.60;53.00
30520;DHT22;17300;50.374;8.006;2024-01-06T11:02:18;12.60;53.10
30520;DHT22;17300;50.374;8.006;2024-01-06T11:49:40;12.60;54.00
30520;DHT22;17300;50.374;8.006;2024-01-06T11:56:05;12.80;54.10
30520;DHT22;17300;50.374;8.006;2024-01-06T12:16:39;12.70;53.00
30520;DHT22;17300;50.374;8.006;2024-01-06T12:20:09;12.70;53.00
30520;DHT22;17300;50.374;8.006;2024-01-06T12:23:24;12.60;52.90
30520;DHT22;17300;50.374;8.006;2024-01-06T14:05:27;12.70;51.40
30520;DHT22;17300;50.374;8.006;2024-01-06T14:08:16;12.70;51.40
30520;DHT22;17300;50.374;8.006;2024-01-06T14:10:43;12.70;51.30
30520;DHT22;17300;50.374;8.006;2024-01-06T14:13:10;12.60;51.20
30520;DHT22;17300;50.374;8.006;2024-01-06T14:15:37;12.60;51.30
30520;DHT22;17300;50.374;8.006;2024-01-06T14:18:04;12.60;51.30
30520;DHT22;17300;50.374;8.006;2024-01-06T14:20:32;12.50;51.30
30520;DHT22;17300;50.374;8.006;2024-01-06T14:23:03;12.50;51.30
30520;DHT22;17300;50.374;8.006;2024-01-06T14:25:30;12.50;51.20
30520;DHT22;17300;50.374;8.006;2024-01-06T14:27:57;12.50;51.20
30520;DHT22;17300;50.374;8.006;2024-01-06T14:30:23;12.50;51.20
30520;DHT22;17300;50.374;8.006;2024-01-06T14:32:50;12.50;51.10
30520;DHT22;17300;50.374;8.006;2024-01-06T14:35:17;12.50;51.10
30520;DHT22;17300;50.374;8.006;2024-01-06T14:37:45;12.50;51.10
30520;DHT22;17300;50.374;8.006;2024-01-06T14:40:12;12.50;51.10
30520;DHT22;17300;50.374;8.006;2024-01-06T14:42:39;12.50;51.10
30520;DHT22;17300;50.374;8.006;2024-01-06T14:45:06;12.50;51.10
30520;DHT22;17300;50.374;8.006;2024-01-06T14:47:33;12.50;51.10
30520;DHT22;17300;50.374;8.006;2024-01-06T14:50:00;12.50;51.10
30520;DHT22;17300;50.374;8.006;2024-01-06T14:52:27;12.50;51.00
30520;DHT22;17300;50.374;8.006;2024-01-06T14:54:55;12.50;51.00
30520;DHT22;17300;50.374;8.006;2024-01-06T14:57:22;12.50;50.90
30520;DHT22;17300;50.374;8.006;2024-01-06T14:59:48;12.50;50.90
30520;DHT22;17300;50.374;8.006;2024-01-06T15:02:15;12.50;50.80
30520;DHT22;17300;50.374;8.006;2024-01-06T15:04:42;12.50;50.80
30520;DHT22;17300;50.374;8.006;2024-01-06T15:07:08;12.50;50.70
30520;DHT22;17300;50.374;8.006;2024-01-06T15:09:38;12.50;50.80
30520;DHT22;17300;50.374;8.006;2024-01-06T15:12:07;12.50;50.70
30520;DHT22;17300;50.374;8.006;2024-01-06T15:14:34;12.50;50.70
30520;DHT22;17300;50.374;8.006;2024-01-06T15:17:00;12.40;50.60
30520;DHT22;17300;50.374;8.006;2024-01-06T15:19:27;12.40;50.60
30520;DHT22;17300;50.374;8.006;2024-01-06T15:21:56;12.40;50.60
30520;DHT22;17300;50.374;8.006;2024-01-06T15:24:23;12.40;50.60
30520;DHT22;17300;50.374;8.006;2024-01-06T15:26:50;12.30;50.50
30520;DHT22;17300;50.374;8.006;2024-01-06T15:29:19;12.30;50.60
30520;DHT22;17300;50.374;8.006;2024-01-06T15:31:46;12.30;50.60
30520;DHT22;17300;50.374;8.006;2024-01-06T15:34:13;12.30;50.60
30520;DHT22;17300;50.374;8.006;2024-01-06T15:36:39;12.30;50.60
30520;DHT22;17300;50.374;8.006;2024-01-06T15:39:06;12.30;50.60
30520;DHT22;17300;50.374;8.006;2024-01-06T15:41:33;12.30;50.70
30520;DHT22;17300;50.374;8.006;2024-01-06T15:43:59;12.20;50.60
30520;DHT22;17300;50.374;8.006;2024-01-06T15:46:27;12.20;50.60
30520;DHT22;17300;50.374;8.006;2024-01-06T15:48:54;12.20;50.70
30520;DHT22;17300;50.374;8.006;2024-01-06T15:51:21;12.20;50.70
30520;DHT22;17300;50.374;8.006;2024-01-06T15:53:48;12.20;50.70
30520;DHT22;17300;50.374;8.006;2024-01-06T15:56:15;12.20;50.70
30520;DHT22;17300;50.374;8.006;2024-01-06T15:58:41;12.20;50.70
30520;DHT22;17300;50.374;8.006;2024-01-06T16:01:08;12.20;50.70
30520;DHT22;17300;50.374;8.006;2024-01-06T16:03:36;12.20;50.70
30520;DHT22;17300;50.374;8.006;2024-01-06T16:06:22;12.20;50.70
30520;DHT22;17300;50.374;8.006;2024-01-06T16:08:49;12.10;50.60
30520;DHT22;17300;50.374;8.006;2024-01-06T16:11:16;12.20;50.70
30520;DHT22;17300;50.374;8.006;2024-01-06T16:13:42;12.10;50.60
30520;DHT22;17300;50.374;8.006;2024-01-06T16:16:09;12.10;50.60
30520;DHT22;17300;50.374;8.006;2024-01-06T16:18:37;12.10;50.80
30520;DHT22;17300;50.374;8.006;2024-01-06T16:21:04;12.10;50.70
30520;DHT22;17300;50.374;8.006;2024-01-06T16:23:31;12.00;50.70
30520;DHT22;17300;50.374;8.006;2024-01-06T16:25:57;12.00;50.70
30520;DHT22;17300;50.374;8.006;2024-01-06T16:28:25;12.00;50.80
30520;DHT22;17300;50.374;8.006;2024-01-06T16:30:51;12.00;50.80
30520;DHT22;17300;50.374;8.006;2024-01-06T16:33:18;12.00;50.80
30520;DHT22;17300;50.374;8.006;2024-01-06T16:35:46;12.00;50.80
30520;DHT22;17300;50.374;8.006;2024-01-06T16:38:13;11.90;50.80
30520;DHT22;17300;50.374;8.006;2024-01-06T16:40:40;11.90;50.80
30520;DHT22;17300;50.374;8.006;2024-01-06T16:43:06;11.90;50.90
30520;DHT22;17300;50.374;8.006;2024-01-06T16:45:33;11.90;50.90
30520;DHT22;17300;50.374;8.006;2024-01-06T16:48:00;11.90;51.00
30520;DHT22;17300;50.374;8.006;2024-01-06T16:50:27;11.90;51.00
30520;DHT22;17300;50.374;8.006;2024-01-06T16:52:55;11.90;51.10
30520;DHT22;17300;50.374;8.006;2024-01-06T16:55:21;11.90;51.10
30520;DHT22;17300;50.374;8.006;2024-01-06T16:57:48;11.80;51.10
30520;DHT22;17300;50.374;8.006;2024-01-06T17:00:18;11.80;51.10
30520;DHT22;17300;50.374;8.006;2024-01-06T17:02:44;11.90;51.30
30520;DHT22;17300;50.374;8.006;2024-01-06T17:05:11;11.80;51.20
30520;DHT22;17300;50.374;8.006;2024-01-06T17:07:38;11.80;51.20
30520;DHT22;17300;50.374;8.006;2024-01-06T17:41:24;11.80;51.30
30520;DHT22;17300;50.374;8.006;2024-01-06T17:44:24;11.80;51.40
30520;DHT22;17300;50.374;8.006;2024-01-06T18:00:49;11.80;51.50
30520;DHT22;17300;50.374;8.006;2024-01-06T18:13:49;11.80;51.40
30520;DHT22;17300;50.374;8.006;2024-01-06T18:16:38;11.80;51.30
30520;DHT22;17300;50.374;8.006;2024-01-06T18:22:50;11.80;51.50
30520;DHT22;17300;50.374;8.006;2024-01-06T18:25:57;11.80;51.50
30520;DHT22;17300;50.374;8.006;2024-01-06T18:28:25;11.80;51.40
30520;DHT22;17300;50.374;8.006;2024-01-06T18:31:14;11.70;51.40
30520;DHT22;17300;50.374;8.006;2024-01-06T18:37:11;11.70;51.40
30520;DHT22;17300;50.374;8.006;2024-01-06T18:43:03;11.70;51.30
30520;DHT22;17300;50.374;8.006;2024-01-06T18:45:51;11.70;51.20
30520;DHT22;17300;50.374;8.006;2024-01-06T18:48:18;11.70;51.20
30520;DHT22;17300;50.374;8.006;2024-01-06T18:50:45;11.70;51.20
30520;DHT22;17300;50.374;8.006;2024-01-06T18:53:17;11.60;51.20
30520;DHT22;17300;50.374;8.006;2024-01-06T18:55:46;11.70;51.40
30520;DHT22;17300;50.374;8.006;2024-01-06T18:58:13;11.60;51.30
30520;DHT22;17300;50.374;8.006;2024-01-06T19:00:40;11.70;51.40
30520;DHT22;17300;50.374;8.006;2024-01-06T19:03:07;11.70;51.30
30520;DHT22;17300;50.374;8.006;2024-01-06T19:05:34;11.70;51.30
30520;DHT22;17300;50.374;8.006;2024-01-06T19:08:23;11.70;51.30
30520;DHT22;17300;50.374;8.006;2024-01-06T19:10:50;11.70;51.30
30520;DHT22;17300;50.374;8.006;2024-01-06T19:13:17;11.60;51.20
30520;DHT22;17300;50.374;8.006;2024-01-06T19:16:05;11.60;51.20
30520;DHT22;17300;50.374;8.006;2024-01-06T19:44:29;11.60;51.20
30520;DHT22;17300;50.374;8.006;2024-01-06T19:47:12;11.60;51.30
30520;DHT22;17300;50.374;8.006;2024-01-06T19:50:29;11.60;51.20
30520;DHT22;17300;50.374;8.006;2024-01-06T19:53:15;11.60;51.20
30520;DHT22;17300;50.374;8.006;2024-01-06T20:03:18;11.60;51.10